sensor_id;sensor_type;location;lat;lon;timestamp;temperature;humidity
74511;DHT22;62991;50.040;18.400;2023-07-31T00:02:37;20.10;69.00
74511;DHT22;62991;50.040;18.400;2023-07-31T00:05:38;20.10;69.00
74511;DHT22;62991;50.040;18.400;2023-07-31T00:08:38;20.20;69.00
74511;DHT22;62991;50.040;18.400;2023-07-31T00:11:39;20.20;68.80
74511;DHT22;62991;50.040;18.400;2023-07-31T00:14:40;20.20;69.10
74511;DHT22;62991;50.040;18.400;2023-07-31T00:17:40;20.20;69.10
74511;DHT22;62991;50.040;18.400;2023-07-31T00:20:41;20.20;68.80
74511;DHT22;62991;50.040;18.400;2023-07-31T00:23:42;20.20;68.70
74511;DHT22;62991;50.040;18.400;2023-07-31T00:26:42;20.20;68.90
74511;DHT22;62991;50.040;18.400;2023-07-31T00:29:43;20.20;69.00
74511;DHT22;62991;50.040;18.400;2023-07-31T00:32:43;20.20;68.90
74511;DHT22;62991;50.040;18.400;2023-07-31T00:35:44;20.20;69.10
74511;DHT22;62991;50.040;18.400;2023-07-31T00:38:45;20.20;69.20
74511;DHT22;62991;50.040;18.400;2023-07-31T00:41:45;20.20;69.10
74511;DHT22;62991;50.040;18.400;2023-07-31T00:44:46;20.20;69.00
74511;DHT22;62991;50.040;18.400;2023-07-31T00:47:47;20.20;69.10
74511;DHT22;62991;50.040;18.400;2023-07-31T00:50:47;20.10;68.70
74511;DHT22;62991;50.040;18.400;2023-07-31T00:53:48;20.00;68.80
74511;DHT22;62991;50.040;18.400;2023-07-31T00:56:50;19.90;68.80
74511;DHT22;62991;50.040;18.400;2023-07-31T00:59:53;19.90;68.40
74511;DHT22;62991;50.040;18.400;2023-07-31T01:02:54;19.90;68.90
74511;DHT22;62991;50.040;18.400;2023-07-31T01:06:04;19.90;69.10
74511;DHT22;62991;50.040;18.400;2023-07-31T01:09:41;19.90;68.80
74511;DHT22;62991;50.040;18.400;2023-07-31T01:12:45;20.00;68.30
74511;DHT22;62991;50.040;18.400;2023-07-31T01:15:45;20.00;68.60
74511;DHT22;62991;50.040;18.400;2023-07-31T01:18:46;19.90;68.50
74511;DHT22;62991;50.040;18.400;2023-07-31T01:29:03;19.80;69.00
74511;DHT22;62991;50.040;18.400;2023-07-31T01:32:08;19.60;69.20
74511;DHT22;62991;50.040;18.400;2023-07-31T01:35:10;19.50;69.80
74511;DHT22;62991;50.040;18.400;2023-07-31T01:38:11;19.40;70.50
74511;DHT22;62991;50.040;18.400;2023-07-31T01:41:12;19.20;71.00
74511;DHT22;62991;50.040;18.400;2023-07-31T01:44:12;18.90;71.80
74511;DHT22;62991;50.040;18.400;2023-07-31T01:47:13;18.80;72.20
74511;DHT22;62991;50.040;18.400;2023-07-31T01:50:14;18.70;72.60
74511;DHT22;62991;50.040;18.400;2023-07-31T01:53:15;18.60;72.90
74511;DHT22;62991;50.040;18.400;2023-07-31T01:56:15;18.60;73.00
74511;DHT22;62991;50.040;18.400;2023-07-31T01:59:16;18.70;72.90
74511;DHT22;62991;50.040;18.400;2023-07-31T02:02:16;18.80;72.30
74511;DHT22;62991;50.040;18.400;2023-07-31T02:05:17;18.80;72.40
74511;DHT22;62991;50.040;18.400;2023-07-31T02:08:18;18.80;72.00
74511;DHT22;62991;50.040;18.400;2023-07-31T02:11:18;18.80;72.20
74511;DHT22;62991;50.040;18.400;2023-07-31T02:14:19;18.80;71.50
74511;DHT22;62991;50.040;18.400;2023-07-31T02:17:20;18.70;71.40
74511;DHT22;62991;50.040;18.400;2023-07-31T02:20:21;18.50;72.10
74511;DHT22;62991;50.040;18.400;2023-07-31T02:23:22;18.40;72.50
74511;DHT22;62991;50.040;18.400;2023-07-31T02:26:22;18.30;73.30
74511;DHT22;62991;50.040;18.400;2023-07-31T02:29:23;18.40;73.10
74511;DHT22;62991;50.040;18.400;2023-07-31T02:32:23;18.60;72.60
74511;DHT22;62991;50.040;18.400;2023-07-31T02:35:24;18.50;72.50
74511;DHT22;62991;50.040;18.400;2023-07-31T02:38:25;18.60;72.60
74511;DHT22;62991;50.040;18.400;2023-07-31T02:41:25;18.50;71.70
74511;DHT22;62991;50.040;18.400;2023-07-31T02:44:26;18.40;72.30
74511;DHT22;62991;50.040;18.400;2023-07-31T02:47:27;18.50;71.10
74511;DHT22;62991;50.040;18.400;2023-07-31T02:50:27;18.50;71.00
74511;DHT22;62991;50.040;18.400;2023-07-31T02:53:29;18.60;70.30
74511;DHT22;62991;50.040;18.400;2023-07-31T02:56:29;18.70;70.00
74511;DHT22;62991;50.040;18.400;2023-07-31T02:59:30;18.60;69.50
74511;DHT22;62991;50.040;18.400;2023-07-31T03:02:31;18.50;69.90
74511;DHT22;62991;50.040;18.400;2023-07-31T03:05:31;18.50;69.50
74511;DHT22;62991;50.040;18.400;2023-07-31T03:08:32;18.30;69.40
74511;DHT22;62991;50.040;18.400;2023-07-31T03:11:32;18.50;69.60
74511;DHT22;62991;50.040;18.400;2023-07-31T03:14:33;18.40;69.20
74511;DHT22;62991;50.040;18.400;2023-07-31T03:17:34;18.30;69.20
74511;DHT22;62991;50.040;18.400;2023-07-31T03:20:34;18.20;69.50
74511;DHT22;62991;50.040;18.400;2023-07-31T03:23:35;18.20;69.70
74511;DHT22;62991;50.040;18.400;2023-07-31T03:26:35;18.40;69.00
74511;DHT22;62991;50.040;18.400;2023-07-31T03:29:37;18.50;68.70
74511;DHT22;62991;50.040;18.400;2023-07-31T03:32:37;18.30;69.20
74511;DHT22;62991;50.040;18.400;2023-07-31T03:35:38;18.40;69.10
74511;DHT22;62991;50.040;18.400;2023-07-31T03:38:39;18.40;69.00
74511;DHT22;62991;50.040;18.400;2023-07-31T03:41:39;18.40;68.80
74511;DHT22;62991;50.040;18.400;2023-07-31T03:44:40;18.30;68.40
74511;DHT22;62991;50.040;18.400;2023-07-31T03:47:41;18.40;67.70
74511;DHT22;62991;50.040;18.400;2023-07-31T03:50:41;18.30;67.90
74511;DHT22;62991;50.040;18.400;2023-07-31T03:53:42;18.30;68.20
74511;DHT22;62991;50.040;18.400;2023-07-31T03:56:43;18.30;68.50
74511;DHT22;62991;50.040;18.400;2023-07-31T03:59:44;18.50;68.30
74511;DHT22;62991;50.040;18.400;2023-07-31T04:02:44;18.60;67.60
74511;DHT22;62991;50.040;18.400;2023-07-31T04:05:45;18.50;67.50
74511;DHT22;62991;50.040;18.400;2023-07-31T04:08:46;18.60;67.80
74511;DHT22;62991;50.040;18.400;2023-07-31T04:11:46;18.80;67.30
74511;DHT22;62991;50.040;18.400;2023-07-31T04:14:47;18.90;67.20
74511;DHT22;62991;50.040;18.400;2023-07-31T04:17:48;18.90;66.20
74511;DHT22;62991;50.040;18.400;2023-07-31T04:20:48;18.90;66.90
74511;DHT22;62991;50.040;18.400;2023-07-31T04:23:49;18.80;66.50
74511;DHT22;62991;50.040;18.400;2023-07-31T04:26:53;19.00;66.40
74511;DHT22;62991;50.040;18.400;2023-07-31T04:29:54;19.00;66.20
74511;DHT22;62991;50.040;18.400;2023-07-31T04:32:54;19.20;64.50
74511;DHT22;62991;50.040;18.400;2023-07-31T04:35:55;19.10;65.40
74511;DHT22;62991;50.040;18.400;2023-07-31T04:38:56;19.20;64.80
74511;DHT22;62991;50.040;18.400;2023-07-31T04:41:56;19.20;64.70
74511;DHT22;62991;50.040;18.400;2023-07-31T04:44:57;19.10;64.80
74511;DHT22;62991;50.040;18.400;2023-07-31T04:47:58;19.00;65.10
74511;DHT22;62991;50.040;18.400;2023-07-31T04:50:58;19.00;65.50
74511;DHT22;62991;50.040;18.400;2023-07-31T04:53:59;19.00;65.10
74511;DHT22;62991;50.040;18.400;2023-07-31T04:57:00;19.10;64.70
74511;DHT22;62991;50.040;18.400;2023-07-31T05:00:00;18.90;65.80
74511;DHT22;62991;50.040;18.400;2023-07-31T05:03:01;19.00;65.80
74511;DHT22;62991;50.040;18.400;2023-07-31T05:06:01;19.20;65.30
74511;DHT22;62991;50.040;18.400;2023-07-31T05:09:02;19.30;65.10
74511;DHT22;62991;50.040;18.400;2023-07-31T05:12:05;19.40;64.70
74511;DHT22;62991;50.040;18.400;2023-07-31T05:15:06;19.50;65.50
74511;DHT22;62991;50.040;18.400;2023-07-31T05:18:07;19.60;63.80
74511;DHT22;62991;50.040;18.400;2023-07-31T05:21:07;19.50;64.80
74511;DHT22;62991;50.040;18.400;2023-07-31T05:24:09;19.60;64.60
74511;DHT22;62991;50.040;18.400;2023-07-31T05:27:10;19.60;63.60
74511;DHT22;62991;50.040;18.400;2023-07-31T05:30:11;19.50;64.20
74511;DHT22;62991;50.040;18.400;2023-07-31T05:33:11;19.40;64.30
74511;DHT22;62991;50.040;18.400;2023-07-31T05:36:12;19.40;64.90
74511;DHT22;62991;50.040;18.400;2023-07-31T05:39:13;19.80;64.60
74511;DHT22;62991;50.040;18.400;2023-07-31T05:42:14;19.80;64.00
74511;DHT22;62991;50.040;18.400;2023-07-31T05:45:14;19.80;64.20
74511;DHT22;62991;50.040;18.400;2023-07-31T05:48:15;19.80;64.20
74511;DHT22;62991;50.040;18.400;2023-07-31T05:51:16;19.80;62.80
74511;DHT22;62991;50.040;18.400;2023-07-31T05:54:16;19.90;62.50
74511;DHT22;62991;50.040;18.400;2023-07-31T05:57:17;19.80;63.00
74511;DHT22;62991;50.040;18.400;2023-07-31T06:00:18;20.00;62.10
74511;DHT22;62991;50.040;18.400;2023-07-31T06:03:18;19.90;62.20
74511;DHT22;62991;50.040;18.400;2023-07-31T06:06:19;19.80;63.20
74511;DHT22;62991;50.040;18.400;2023-07-31T06:09:20;19.90;63.70
74511;DHT22;62991;50.040;18.400;2023-07-31T06:12:21;19.90;63.60
74511;DHT22;62991;50.040;18.400;2023-07-31T06:15:21;20.00;63.60
74511;DHT22;62991;50.040;18.400;2023-07-31T06:18:22;20.00;63.00
74511;DHT22;62991;50.040;18.400;2023-07-31T06:21:23;20.00;62.90
74511;DHT22;62991;50.040;18.400;2023-07-31T06:24:23;20.00;62.10
74511;DHT22;62991;50.040;18.400;2023-07-31T06:27:24;20.00;63.60
74511;DHT22;62991;50.040;18.400;2023-07-31T06:30:25;20.10;62.90
74511;DHT22;62991;50.040;18.400;2023-07-31T06:33:26;20.00;62.20
74511;DHT22;62991;50.040;18.400;2023-07-31T06:36:26;20.00;62.30
74511;DHT22;62991;50.040;18.400;2023-07-31T06:39:27;20.00;62.70
74511;DHT22;62991;50.040;18.400;2023-07-31T06:42:28;20.00;61.50
74511;DHT22;62991;50.040;18.400;2023-07-31T06:45:28;20.00;61.20
74511;DHT22;62991;50.040;18.400;2023-07-31T06:48:29;20.00;62.00
74511;DHT22;62991;50.040;18.400;2023-07-31T06:51:29;20.10;62.70
74511;DHT22;62991;50.040;18.400;2023-07-31T06:54:31;20.20;61.70
74511;DHT22;62991;50.040;18.400;2023-07-31T06:57:32;20.30;61.70
74511;DHT22;62991;50.040;18.400;2023-07-31T07:00:33;20.10;61.60
74511;DHT22;62991;50.040;18.400;2023-07-31T07:03:34;20.30;61.60
74511;DHT22;62991;50.040;18.400;2023-07-31T07:06:34;20.20;61.80
74511;DHT22;62991;50.040;18.400;2023-07-31T07:09:35;20.20;60.60
74511;DHT22;62991;50.040;18.400;2023-07-31T07:12:36;20.10;60.40
74511;DHT22;62991;50.040;18.400;2023-07-31T07:15:36;20.10;62.10
74511;DHT22;62991;50.040;18.400;2023-07-31T07:18:37;20.20;60.70
74511;DHT22;62991;50.040;18.400;2023-07-31T07:21:38;20.10;61.20
74511;DHT22;62991;50.040;18.400;2023-07-31T07:24:39;20.00;60.60
74511;DHT22;62991;50.040;18.400;2023-07-31T07:27:39;19.90;61.30
74511;DHT22;62991;50.040;18.400;2023-07-31T07:30:40;20.00;60.70
74511;DHT22;62991;50.040;18.400;2023-07-31T07:33:40;19.90;61.20
74511;DHT22;62991;50.040;18.400;2023-07-31T07:36:41;19.80;61.30
74511;DHT22;62991;50.040;18.400;2023-07-31T07:39:42;19.80;62.30
74511;DHT22;62991;50.040;18.400;2023-07-31T07:42:42;19.80;62.30
74511;DHT22;62991;50.040;18.400;2023-07-31T07:45:43;19.70;61.20
74511;DHT22;62991;50.040;18.400;2023-07-31T07:48:44;19.60;61.60
74511;DHT22;62991;50.040;18.400;2023-07-31T07:51:44;19.50;62.50
74511;DHT22;62991;50.040;18.400;2023-07-31T07:54:45;19.60;62.30
74511;DHT22;62991;50.040;18.400;2023-07-31T07:57:46;19.60;63.00
74511;DHT22;62991;50.040;18.400;2023-07-31T08:00:50;19.70;62.80
74511;DHT22;62991;50.040;18.400;2023-07-31T08:03:51;19.80;62.60
74511;DHT22;62991;50.040;18.400;2023-07-31T08:06:52;19.90;62.80
74511;DHT22;62991;50.040;18.400;2023-07-31T08:09:52;19.90;63.20
74511;DHT22;62991;50.040;18.400;2023-07-31T08:12:53;20.00;61.50
74511;DHT22;62991;50.040;18.400;2023-07-31T08:15:54;20.00;59.90
74511;DHT22;62991;50.040;18.400;2023-07-31T08:18:54;20.00;59.90
74511;DHT22;62991;50.040;18.400;2023-07-31T08:21:55;20.10;58.60
74511;DHT22;62991;50.040;18.400;2023-07-31T08:24:56;20.10;59.00
74511;DHT22;62991;50.040;18.400;2023-07-31T08:27:56;20.20;59.10
74511;DHT22;62991;50.040;18.400;2023-07-31T08:30:57;20.30;58.50
74511;DHT22;62991;50.040;18.400;2023-07-31T08:33:58;20.30;58.80
74511;DHT22;62991;50.040;18.400;2023-07-31T08:36:58;20.40;58.90
74511;DHT22;62991;50.040;18.400;2023-07-31T08:40:00;20.50;59.20
74511;DHT22;62991;50.040;18.400;2023-07-31T08:43:01;20.60;58.40
74511;DHT22;62991;50.040;18.400;2023-07-31T08:46:02;20.60;57.50
74511;DHT22;62991;50.040;18.400;2023-07-31T08:49:07;20.80;57.90
74511;DHT22;62991;50.040;18.400;2023-07-31T08:52:08;20.90;58.70
74511;DHT22;62991;50.040;18.400;2023-07-31T08:55:09;20.90;58.50
74511;DHT22;62991;50.040;18.400;2023-07-31T08:58:12;20.90;59.10
74511;DHT22;62991;50.040;18.400;2023-07-31T09:01:13;20.90;59.20
74511;DHT22;62991;50.040;18.400;2023-07-31T09:04:16;20.90;58.40
74511;DHT22;62991;50.040;18.400;2023-07-31T09:07:18;20.90;57.50
74511;DHT22;62991;50.040;18.400;2023-07-31T09:10:19;21.00;58.00
74511;DHT22;62991;50.040;18.400;2023-07-31T09:13:19;21.00;58.10
74511;DHT22;62991;50.040;18.400;2023-07-31T09:16:27;21.00;57.30
74511;DHT22;62991;50.040;18.400;2023-07-31T09:19:35;21.10;57.70
74511;DHT22;62991;50.040;18.400;2023-07-31T09:22:40;21.20;56.40
74511;DHT22;62991;50.040;18.400;2023-07-31T09:25:46;21.30;55.80
74511;DHT22;62991;50.040;18.400;2023-07-31T09:28:46;21.30;56.20
74511;DHT22;62991;50.040;18.400;2023-07-31T09:31:47;21.40;55.20
74511;DHT22;62991;50.040;18.400;2023-07-31T09:34:48;21.50;54.00
74511;DHT22;62991;50.040;18.400;2023-07-31T09:37:52;21.60;55.10
74511;DHT22;62991;50.040;18.400;2023-07-31T09:40:53;21.70;55.30
74511;DHT22;62991;50.040;18.400;2023-07-31T09:43:54;21.80;55.90
74511;DHT22;62991;50.040;18.400;2023-07-31T09:46:55;21.80;55.10
74511;DHT22;62991;50.040;18.400;2023-07-31T09:49:56;21.80;53.40
74511;DHT22;62991;50.040;18.400;2023-07-31T09:52:56;21.90;53.90
74511;DHT22;62991;50.040;18.400;2023-07-31T09:55:58;22.10;53.40
74511;DHT22;62991;50.040;18.400;2023-07-31T09:59:01;22.10;52.60
74511;DHT22;62991;50.040;18.400;2023-07-31T10:02:02;22.00;52.40
74511;DHT22;62991;50.040;18.400;2023-07-31T10:05:04;22.20;52.40
74511;DHT22;62991;50.040;18.400;2023-07-31T10:08:07;22.20;53.10
74511;DHT22;62991;50.040;18.400;2023-07-31T10:11:10;22.30;53.70
74511;DHT22;62991;50.040;18.400;2023-07-31T10:14:11;22.40;52.90
74511;DHT22;62991;50.040;18.400;2023-07-31T10:17:12;22.40;52.50
74511;DHT22;62991;50.040;18.400;2023-07-31T10:20:15;22.40;52.40
74511;DHT22;62991;50.040;18.400;2023-07-31T10:23:19;22.60;52.30
74511;DHT22;62991;50.040;18.400;2023-07-31T10:26:20;22.60;51.60
74511;DHT22;62991;50.040;18.400;2023-07-31T10:29:24;22.70;52.00
74511;DHT22;62991;50.040;18.400;2023-07-31T10:32:26;22.70;50.50
74511;DHT22;62991;50.040;18.400;2023-07-31T10:35:27;22.80;51.40
74511;DHT22;62991;50.040;18.400;2023-07-31T10:38:28;22.90;51.10
74511;DHT22;62991;50.040;18.400;2023-07-31T10:41:32;23.10;51.40
74511;DHT22;62991;50.040;18.400;2023-07-31T10:44:34;23.10;50.20
74511;DHT22;62991;50.040;18.400;2023-07-31T10:47:38;23.30;51.70
74511;DHT22;62991;50.040;18.400;2023-07-31T10:53:47;23.50;50.00
74511;DHT22;62991;50.040;18.400;2023-07-31T10:56:51;23.70;49.10
74511;DHT22;62991;50.040;18.400;2023-07-31T11:03:25;23.60;47.80
74511;DHT22;62991;50.040;18.400;2023-07-31T11:06:29;23.60;49.30
74511;DHT22;62991;50.040;18.400;2023-07-31T11:09:32;23.50;48.10
74511;DHT22;62991;50.040;18.400;2023-07-31T11:12:33;23.40;47.60
74511;DHT22;62991;50.040;18.400;2023-07-31T11:15:34;23.50;47.00
74511;DHT22;62991;50.040;18.400;2023-07-31T11:18:35;23.70;47.90
74511;DHT22;62991;50.040;18.400;2023-07-31T11:21:37;23.50;48.00
74511;DHT22;62991;50.040;18.400;2023-07-31T11:24:37;23.60;49.00
74511;DHT22;62991;50.040;18.400;2023-07-31T11:27:41;23.50;47.80
74511;DHT22;62991;50.040;18.400;2023-07-31T11:30:44;23.60;47.90
74511;DHT22;62991;50.040;18.400;2023-07-31T11:33:46;23.60;48.60
74511;DHT22;62991;50.040;18.400;2023-07-31T11:36:54;23.70;49.20
74511;DHT22;62991;50.040;18.400;2023-07-31T11:40:02;23.70;48.50
74511;DHT22;62991;50.040;18.400;2023-07-31T11:43:04;23.50;46.50
74511;DHT22;62991;50.040;18.400;2023-07-31T11:46:05;23.50;48.80
74511;DHT22;62991;50.040;18.400;2023-07-31T11:49:07;23.60;46.90
74511;DHT22;62991;50.040;18.400;2023-07-31T11:52:09;23.60;46.50
74511;DHT22;62991;50.040;18.400;2023-07-31T11:55:10;23.60;46.30
74511;DHT22;62991;50.040;18.400;2023-07-31T11:58:11;23.70;46.60
74511;DHT22;62991;50.040;18.400;2023-07-31T12:01:18;23.90;47.00
74511;DHT22;62991;50.040;18.400;2023-07-31T12:04:20;24.20;45.60
74511;DHT22;62991;50.040;18.400;2023-07-31T12:07:24;24.40;46.80
74511;DHT22;62991;50.040;18.400;2023-07-31T12:10:30;24.20;46.20
74511;DHT22;62991;50.040;18.400;2023-07-31T12:13:31;24.00;45.70
74511;DHT22;62991;50.040;18.400;2023-07-31T12:16:32;24.00;45.90
74511;DHT22;62991;50.040;18.400;2023-07-31T12:19:33;24.30;46.00
74511;DHT22;62991;50.040;18.400;2023-07-31T12:22:35;24.50;45.70
74511;DHT22;62991;50.040;18.400;2023-07-31T12:25:36;24.60;45.50
74511;DHT22;62991;50.040;18.400;2023-07-31T12:28:39;24.40;45.30
74511;DHT22;62991;50.040;18.400;2023-07-31T12:31:41;24.20;45.20
74511;DHT22;62991;50.040;18.400;2023-07-31T12:34:42;24.00;45.10
74511;DHT22;62991;50.040;18.400;2023-07-31T12:37:44;23.90;45.90
74511;DHT22;62991;50.040;18.400;2023-07-31T12:40:44;23.90;46.50
74511;DHT22;62991;50.040;18.400;2023-07-31T12:43:45;23.80;46.90
74511;DHT22;62991;50.040;18.400;2023-07-31T12:46:46;23.70;46.30
74511;DHT22;62991;50.040;18.400;2023-07-31T12:49:47;23.80;46.60
74511;DHT22;62991;50.040;18.400;2023-07-31T12:52:47;24.20;46.20
74511;DHT22;62991;50.040;18.400;2023-07-31T12:55:48;24.30;46.30
74511;DHT22;62991;50.040;18.400;2023-07-31T12:58:49;24.40;45.40
74511;DHT22;62991;50.040;18.400;2023-07-31T13:01:49;24.50;46.40
74511;DHT22;62991;50.040;18.400;2023-07-31T13:04:50;24.60;46.20
74511;DHT22;62991;50.040;18.400;2023-07-31T13:07:51;24.60;46.00
74511;DHT22;62991;50.040;18.400;2023-07-31T13:10:51;24.80;46.40
74511;DHT22;62991;50.040;18.400;2023-07-31T13:13:52;24.70;45.90
74511;DHT22;62991;50.040;18.400;2023-07-31T13:16:53;24.60;45.80
74511;DHT22;62991;50.040;18.400;2023-07-31T13:19:53;24.50;45.20
74511;DHT22;62991;50.040;18.400;2023-07-31T13:22:54;24.40;45.80
74511;DHT22;62991;50.040;18.400;2023-07-31T13:25:55;24.50;46.00
74511;DHT22;62991;50.040;18.400;2023-07-31T13:28:55;24.70;45.60
74511;DHT22;62991;50.040;18.400;2023-07-31T13:31:56;25.00;45.80
74511;DHT22;62991;50.040;18.400;2023-07-31T13:34:57;24.80;45.60
74511;DHT22;62991;50.040;18.400;2023-07-31T13:37:57;24.60;45.60
74511;DHT22;62991;50.040;18.400;2023-07-31T13:40:58;24.60;46.40
74511;DHT22;62991;50.040;18.400;2023-07-31T13:43:59;24.80;45.60
74511;DHT22;62991;50.040;18.400;2023-07-31T13:47:00;24.70;45.50
74511;DHT22;62991;50.040;18.400;2023-07-31T13:50:00;24.80;45.50
74511;DHT22;62991;50.040;18.400;2023-07-31T13:53:01;24.80;44.60
74511;DHT22;62991;50.040;18.400;2023-07-31T13:56:02;24.80;45.10
74511;DHT22;62991;50.040;18.400;2023-07-31T13:59:02;24.90;45.70
74511;DHT22;62991;50.040;18.400;2023-07-31T14:02:03;24.90;46.40
74511;DHT22;62991;50.040;18.400;2023-07-31T14:05:04;25.00;46.00
74511;DHT22;62991;50.040;18.400;2023-07-31T14:08:05;25.10;44.60
74511;DHT22;62991;50.040;18.400;2023-07-31T14:11:06;25.10;44.40
74511;DHT22;62991;50.040;18.400;2023-07-31T14:14:06;25.20;44.50
74511;DHT22;62991;50.040;18.400;2023-07-31T14:17:08;24.90;45.40
74511;DHT22;62991;50.040;18.400;2023-07-31T14:20:10;24.90;45.50
74511;DHT22;62991;50.040;18.400;2023-07-31T14:23:11;24.80;46.70
74511;DHT22;62991;50.040;18.400;2023-07-31T14:26:11;24.50;46.50
74511;DHT22;62991;50.040;18.400;2023-07-31T14:29:12;24.50;46.50
74511;DHT22;62991;50.040;18.400;2023-07-31T14:32:13;24.30;45.60
74511;DHT22;62991;50.040;18.400;2023-07-31T14:35:13;24.30;46.30
74511;DHT22;62991;50.040;18.400;2023-07-31T14:38:14;24.50;46.30
74511;DHT22;62991;50.040;18.400;2023-07-31T14:41:15;24.70;46.30
74511;DHT22;62991;50.040;18.400;2023-07-31T14:44:15;24.90;46.10
74511;DHT22;62991;50.040;18.400;2023-07-31T14:47:16;25.30;46.30
74511;DHT22;62991;50.040;18.400;2023-07-31T14:50:16;25.60;46.30
74511;DHT22;62991;50.040;18.400;2023-07-31T14:53:17;25.60;44.90
74511;DHT22;62991;50.040;18.400;2023-07-31T14:56:18;25.40;45.30
74511;DHT22;62991;50.040;18.400;2023-07-31T14:59:18;25.20;45.30
74511;DHT22;62991;50.040;18.400;2023-07-31T15:02:19;24.90;46.10
74511;DHT22;62991;50.040;18.400;2023-07-31T15:05:20;25.00;46.30
74511;DHT22;62991;50.040;18.400;2023-07-31T15:08:20;24.90;45.70
74511;DHT22;62991;50.040;18.400;2023-07-31T15:11:21;24.80;46.30
74511;DHT22;62991;50.040;18.400;2023-07-31T15:14:22;24.80;46.30
74511;DHT22;62991;50.040;18.400;2023-07-31T15:17:23;24.80;46.10
74511;DHT22;62991;50.040;18.400;2023-07-31T15:20:24;24.70;46.50
74511;DHT22;62991;50.040;18.400;2023-07-31T15:23:25;24.70;45.70
74511;DHT22;62991;50.040;18.400;2023-07-31T15:26:26;24.80;45.60
74511;DHT22;62991;50.040;18.400;2023-07-31T15:29:27;24.70;46.50
74511;DHT22;62991;50.040;18.400;2023-07-31T15:32:28;24.70;46.30
74511;DHT22;62991;50.040;18.400;2023-07-31T15:35:29;24.80;46.20
74511;DHT22;62991;50.040;18.400;2023-07-31T15:38:29;24.70;45.80
74511;DHT22;62991;50.040;18.400;2023-07-31T15:41:30;24.80;46.90
74511;DHT22;62991;50.040;18.400;2023-07-31T15:44:31;24.90;46.20
74511;DHT22;62991;50.040;18.400;2023-07-31T15:47:31;25.00;46.20
74511;DHT22;62991;50.040;18.400;2023-07-31T15:50:32;25.00;45.40
74511;DHT22;62991;50.040;18.400;2023-07-31T15:53:33;24.90;45.60
74511;DHT22;62991;50.040;18.400;2023-07-31T15:56:33;24.80;45.30
74511;DHT22;62991;50.040;18.400;2023-07-31T15:59:34;24.80;45.70
74511;DHT22;62991;50.040;18.400;2023-07-31T16:02:35;24.90;46.30
74511;DHT22;62991;50.040;18.400;2023-07-31T16:05:35;25.10;45.90
74511;DHT22;62991;50.040;18.400;2023-07-31T16:08:36;25.40;46.10
74511;DHT22;62991;50.040;18.400;2023-07-31T16:11:41;25.60;45.20
74511;DHT22;62991;50.040;18.400;2023-07-31T16:14:42;25.70;44.70
74511;DHT22;62991;50.040;18.400;2023-07-31T16:17:43;25.70;43.30
74511;DHT22;62991;50.040;18.400;2023-07-31T16:20:44;25.50;44.20
74511;DHT22;62991;50.040;18.400;2023-07-31T16:23:44;25.20;44.50
74511;DHT22;62991;50.040;18.400;2023-07-31T16:26:45;25.00;44.80
74511;DHT22;62991;50.040;18.400;2023-07-31T16:29:46;24.80;45.40
74511;DHT22;62991;50.040;18.400;2023-07-31T16:32:47;24.60;45.70
74511;DHT22;62991;50.040;18.400;2023-07-31T16:35:49;24.40;46.40
74511;DHT22;62991;50.040;18.400;2023-07-31T16:38:50;24.20;47.00
74511;DHT22;62991;50.040;18.400;2023-07-31T16:41:51;24.00;47.60
74511;DHT22;62991;50.040;18.400;2023-07-31T16:44:52;23.80;47.90
74511;DHT22;62991;50.040;18.400;2023-07-31T16:47:53;23.70;48.00
74511;DHT22;62991;50.040;18.400;2023-07-31T16:50:53;23.60;48.80
74511;DHT22;62991;50.040;18.400;2023-07-31T16:53:54;23.50;49.30
74511;DHT22;62991;50.040;18.400;2023-07-31T16:56:55;23.50;49.30
74511;DHT22;62991;50.040;18.400;2023-07-31T16:59:55;23.40;49.30
74511;DHT22;62991;50.040;18.400;2023-07-31T17:02:56;23.40;49.60
74511;DHT22;62991;50.040;18.400;2023-07-31T17:05:57;23.40;49.70
74511;DHT22;62991;50.040;18.400;2023-07-31T17:08:57;23.40;49.80
74511;DHT22;62991;50.040;18.400;2023-07-31T17:11:59;23.30;49.60
74511;DHT22;62991;50.040;18.400;2023-07-31T17:14:59;23.40;49.40
74511;DHT22;62991;50.040;18.400;2023-07-31T17:18:00;23.50;49.00
74511;DHT22;62991;50.040;18.400;2023-07-31T17:21:01;23.60;49.50
74511;DHT22;62991;50.040;18.400;2023-07-31T17:24:02;23.70;49.10
74511;DHT22;62991;50.040;18.400;2023-07-31T17:27:03;23.80;48.60
74511;DHT22;62991;50.040;18.400;2023-07-31T17:30:05;23.90;48.30
74511;DHT22;62991;50.040;18.400;2023-07-31T17:33:06;23.90;48.20
74511;DHT22;62991;50.040;18.400;2023-07-31T17:36:07;23.70;48.10
74511;DHT22;62991;50.040;18.400;2023-07-31T17:39:08;23.60;49.00
74511;DHT22;62991;50.040;18.400;2023-07-31T17:42:19;23.50;49.00
74511;DHT22;62991;50.040;18.400;2023-07-31T17:45:19;23.60;49.30
74511;DHT22;62991;50.040;18.400;2023-07-31T17:48:21;23.80;49.00
74511;DHT22;62991;50.040;18.400;2023-07-31T17:51:22;23.80;48.50
74511;DHT22;62991;50.040;18.400;2023-07-31T17:54:22;23.70;49.60
74511;DHT22;62991;50.040;18.400;2023-07-31T17:57:25;23.70;48.90
74511;DHT22;62991;50.040;18.400;2023-07-31T18:00:26;23.60;48.70
74511;DHT22;62991;50.040;18.400;2023-07-31T18:03:27;23.50;50.10
74511;DHT22;62991;50.040;18.400;2023-07-31T18:06:28;23.40;49.50
74511;DHT22;62991;50.040;18.400;2023-07-31T18:09:28;23.30;50.00
74511;DHT22;62991;50.040;18.400;2023-07-31T18:12:29;23.30;49.90
74511;DHT22;62991;50.040;18.400;2023-07-31T18:15:30;23.30;50.60
74511;DHT22;62991;50.040;18.400;2023-07-31T18:18:30;23.30;51.00
74511;DHT22;62991;50.040;18.400;2023-07-31T18:21:31;23.30;51.50
74511;DHT22;62991;50.040;18.400;2023-07-31T18:24:34;23.30;50.20
74511;DHT22;62991;50.040;18.400;2023-07-31T18:27:35;23.20;50.90
74511;DHT22;62991;50.040;18.400;2023-07-31T18:30:35;23.20;52.00
74511;DHT22;62991;50.040;18.400;2023-07-31T18:33:36;23.20;52.20
74511;DHT22;62991;50.040;18.400;2023-07-31T18:36:36;23.20;52.70
74511;DHT22;62991;50.040;18.400;2023-07-31T18:39:37;23.10;53.10
74511;DHT22;62991;50.040;18.400;2023-07-31T18:42:38;23.10;53.30
74511;DHT22;62991;50.040;18.400;2023-07-31T18:45:38;23.10;53.40
74511;DHT22;62991;50.040;18.400;2023-07-31T18:48:39;23.10;53.30
74511;DHT22;62991;50.040;18.400;2023-07-31T18:51:40;23.00;53.40
74511;DHT22;62991;50.040;18.400;2023-07-31T18:54:40;23.00;53.60
74511;DHT22;62991;50.040;18.400;2023-07-31T18:57:41;22.90;53.80
74511;DHT22;62991;50.040;18.400;2023-07-31T19:00:43;22.90;54.30